createdAt,value
2023-10-06T00:00:50.198Z,19.49
2023-10-06T00:01:48.296Z,19.49
2023-10-06T00:02:48.263Z,19.49
2023-10-06T00:03:48.263Z,19.49
2023-10-06T00:04:48.302Z,19.49
2023-10-06T00:06:48.244Z,19.49
2023-10-06T00:07:48.452Z,19.47
2023-10-06T00:09:48.258Z,19.49
2023-10-06T00:10:48.311Z,19.47
2023-10-06T00:11:49.270Z,19.47
2023-10-06T00:13:48.458Z,19.46
2023-10-06T00:14:48.410Z,19.46
2023-10-06T00:15:48.354Z,19.46
2023-10-06T00:17:48.955Z,19.46
2023-10-06T00:18:48.434Z,19.45
2023-10-06T00:19:48.495Z,19.45
2023-10-06T00:20:48.570Z,19.45
2023-10-06T00:21:48.424Z,19.45
2023-10-06T00:22:48.666Z,19.47
2023-10-06T00:23:48.630Z,19.47
2023-10-06T00:24:48.418Z,19.46
2023-10-06T00:25:48.464Z,19.46
2023-10-06T00:26:48.480Z,19.45
2023-10-06T00:27:48.411Z,19.46
2023-10-06T00:28:48.609Z,19.46
2023-10-06T00:29:48.512Z,19.46
2023-10-06T00:30:48.591Z,19.46
2023-10-06T00:31:48.662Z,19.45
2023-10-06T00:32:48.446Z,19.46
2023-10-06T00:33:48.537Z,19.45
2023-10-06T00:34:48.504Z,19.46
2023-10-06T00:35:48.479Z,19.42
2023-10-06T00:36:48.643Z,19.42
2023-10-06T00:37:48.552Z,19.42
2023-10-06T00:38:48.668Z,19.43
2023-10-06T00:39:48.625Z,19.43
2023-10-06T00:40:48.564Z,19.42
2023-10-06T00:41:48.585Z,19.40
2023-10-06T00:42:48.562Z,19.40
2023-10-06T00:43:48.607Z,19.42
2023-10-06T00:44:48.652Z,19.40
2023-10-06T00:45:48.616Z,19.40
2023-10-06T00:46:48.805Z,19.40
2023-10-06T00:47:48.695Z,19.40
2023-10-06T00:48:48.644Z,19.40
2023-10-06T00:49:48.816Z,19.39
2023-10-06T00:50:48.728Z,19.40
2023-10-06T00:51:48.676Z,19.39
2023-10-06T00:52:48.781Z,19.39
2023-10-06T00:53:48.703Z,19.39
2023-10-06T00:54:48.711Z,19.40
2023-10-06T00:56:49.045Z,19.39
2023-10-06T00:57:48.761Z,19.40
2023-10-06T00:58:48.907Z,19.39
2023-10-06T00:59:48.751Z,19.40
2023-10-06T01:00:48.866Z,19.39
2023-10-06T01:01:48.853Z,19.39
2023-10-06T01:02:48.959Z,19.39
2023-10-06T01:03:48.957Z,19.39
2023-10-06T01:04:48.973Z,19.39
2023-10-06T01:05:48.832Z,19.39
2023-10-06T01:06:48.844Z,19.35
2023-10-06T01:07:48.868Z,19.38
2023-10-06T01:08:48.947Z,19.34
2023-10-06T01:09:49.003Z,19.35
2023-10-06T01:10:48.978Z,19.35
2023-10-06T01:11:49.355Z,19.38
2023-10-06T01:12:48.929Z,19.38
2023-10-06T01:13:48.957Z,19.39
2023-10-06T01:14:48.984Z,19.38
2023-10-06T01:15:49.150Z,19.35
2023-10-06T01:16:49.093Z,19.35
2023-10-06T01:17:49.120Z,19.35
2023-10-06T01:18:49.054Z,19.35
2023-10-06T01:19:49.150Z,19.34
2023-10-06T01:20:49.090Z,19.34
2023-10-06T01:21:49.092Z,19.34
2023-10-06T01:22:49.835Z,19.32
2023-10-06T01:23:49.058Z,19.35
2023-10-06T01:24:49.053Z,19.32
2023-10-06T01:26:49.165Z,19.32
2023-10-06T01:27:49.268Z,19.31
2023-10-06T01:28:49.367Z,19.31
2023-10-06T01:29:49.191Z,19.32
2023-10-06T01:30:49.161Z,19.31
2023-10-06T01:31:49.267Z,19.34
2023-10-06T01:32:49.288Z,19.32
2023-10-06T01:33:49.330Z,19.32
2023-10-06T01:34:49.344Z,19.32
2023-10-06T01:35:49.230Z,19.32
2023-10-06T01:36:49.190Z,19.32
2023-10-06T01:37:49.974Z,19.32
2023-10-06T01:38:49.147Z,19.31
2023-10-06T01:39:49.313Z,19.32
2023-10-06T01:40:49.220Z,19.32
2023-10-06T01:41:49.220Z,19.34
2023-10-06T01:42:49.274Z,19.32
2023-10-06T01:43:49.388Z,19.32
2023-10-06T01:44:49.247Z,19.32
2023-10-06T01:45:49.295Z,19.31
2023-10-06T01:46:49.329Z,19.30
2023-10-06T01:47:49.529Z,19.31
2023-10-06T01:48:49.392Z,19.31
2023-10-06T01:49:49.394Z,19.30
2023-10-06T01:51:59.021Z,19.30
2023-10-06T01:52:49.530Z,19.28
2023-10-06T01:53:49.404Z,19.30
2023-10-06T01:54:49.463Z,19.30
2023-10-06T01:55:49.486Z,19.30
2023-10-06T01:56:49.546Z,19.30
2023-10-06T02:00:49.848Z,19.30
2023-10-06T02:02:49.689Z,19.32
2023-10-06T02:04:49.861Z,19.31
2023-10-06T02:06:49.810Z,19.27
2023-10-06T02:07:49.682Z,19.28
2023-10-06T02:08:49.663Z,19.28
2023-10-06T02:09:49.680Z,19.28
2023-10-06T02:10:49.759Z,19.30
2023-10-06T02:11:50.410Z,19.25
2023-10-06T02:12:49.723Z,19.27
2023-10-06T02:13:49.822Z,19.27
2023-10-06T02:14:49.807Z,19.25
2023-10-06T02:15:49.977Z,19.25
2023-10-06T02:16:49.901Z,19.25
2023-10-06T02:18:49.866Z,19.27
2023-10-06T02:20:49.842Z,19.25
2023-10-06T02:21:49.883Z,19.25
2023-10-06T02:25:49.918Z,19.24
2023-10-06T02:26:49.982Z,19.25
2023-10-06T02:28:50.314Z,19.25
2023-10-06T02:29:50.003Z,19.25
2023-10-06T02:30:50.044Z,19.24
2023-10-06T02:32:49.973Z,19.24
2023-10-06T02:34:50.089Z,19.21
2023-10-06T02:35:50.017Z,19.24
2023-10-06T02:36:49.980Z,19.23
2023-10-06T02:37:50.058Z,19.23
2023-10-06T02:38:50.103Z,19.24
2023-10-06T02:42:50.028Z,19.24
2023-10-06T02:43:50.011Z,19.24
2023-10-06T02:44:50.070Z,19.24
2023-10-06T02:46:50.432Z,19.21
2023-10-06T02:47:50.276Z,19.24
2023-10-06T02:49:50.678Z,19.20
2023-10-06T02:51:50.276Z,19.21
2023-10-06T02:53:50.096Z,19.20
2023-10-06T02:54:50.096Z,19.20
2023-10-06T02:55:50.916Z,19.17
2023-10-06T02:56:50.111Z,19.20
2023-10-06T02:58:50.233Z,19.20
2023-10-06T02:59:50.237Z,19.17
2023-10-06T03:02:50.349Z,19.20
2023-10-06T03:03:50.391Z,19.17
2023-10-06T03:04:50.403Z,19.21
2023-10-06T03:05:50.344Z,19.21
2023-10-06T03:06:50.303Z,19.21
2023-10-06T03:07:50.346Z,19.17
2023-10-06T03:08:50.365Z,19.17
2023-10-06T03:09:50.428Z,19.17
2023-10-06T03:10:50.463Z,19.16
2023-10-06T03:11:50.536Z,19.21
2023-10-06T03:12:50.479Z,19.20
2023-10-06T03:14:50.416Z,19.17
2023-10-06T03:15:50.429Z,19.20
2023-10-06T03:17:50.503Z,19.16
2023-10-06T03:18:50.572Z,19.20
2023-10-06T03:19:50.618Z,19.17
2023-10-06T03:20:50.580Z,19.17
2023-10-06T03:21:50.481Z,19.16
2023-10-06T03:22:50.647Z,19.16
2023-10-06T03:24:50.922Z,19.17
2023-10-06T03:25:50.578Z,19.17
2023-10-06T03:26:50.549Z,19.16
2023-10-06T03:27:50.604Z,19.17
2023-10-06T03:28:50.630Z,19.17
2023-10-06T03:29:50.648Z,19.15
2023-10-06T03:30:51.045Z,19.15
2023-10-06T03:31:50.584Z,19.13
2023-10-06T03:32:50.700Z,19.15
2023-10-06T03:33:50.649Z,19.15
2023-10-06T03:34:50.612Z,19.15
2023-10-06T03:35:50.715Z,19.15
2023-10-06T03:36:50.616Z,19.13
2023-10-06T03:37:50.651Z,19.15
2023-10-06T03:38:50.625Z,19.15
2023-10-06T03:39:50.630Z,19.13
2023-10-06T03:40:50.655Z,19.10
2023-10-06T03:41:50.720Z,19.12
2023-10-06T03:42:50.657Z,19.10
2023-10-06T03:43:50.687Z,19.12
2023-10-06T03:45:50.655Z,19.12
2023-10-06T03:46:50.772Z,19.10
2023-10-06T03:47:50.741Z,19.12
2023-10-06T03:48:50.706Z,19.13
2023-10-06T03:49:50.783Z,19.13
2023-10-06T03:50:50.704Z,19.12
2023-10-06T03:51:50.909Z,19.12
2023-10-06T03:52:50.740Z,19.13
2023-10-06T03:53:50.731Z,19.13
2023-10-06T03:55:50.845Z,19.12
2023-10-06T03:56:50.818Z,19.10
2023-10-06T03:57:51.344Z,19.12
2023-10-06T03:58:50.801Z,19.12
2023-10-06T03:59:50.764Z,19.12
2023-10-06T04:00:51.006Z,19.09
2023-10-06T04:01:50.913Z,19.10
2023-10-06T04:02:50.920Z,19.10
2023-10-06T04:03:51.016Z,19.10
2023-10-06T04:04:50.832Z,19.09
2023-10-06T04:05:50.818Z,19.10
2023-10-06T04:06:50.813Z,19.10
2023-10-06T04:07:50.942Z,19.10
2023-10-06T04:08:50.830Z,19.10
2023-10-06T04:09:50.845Z,19.10
2023-10-06T04:10:50.861Z,19.12
2023-10-06T04:11:50.851Z,19.12
2023-10-06T04:13:50.866Z,19.12
2023-10-06T04:14:50.870Z,19.12
2023-10-06T04:15:50.871Z,19.13
2023-10-06T04:16:50.910Z,19.10
2023-10-06T04:17:50.956Z,19.12
2023-10-06T04:18:51.082Z,19.12
2023-10-06T04:19:50.988Z,19.13
2023-10-06T04:20:51.421Z,19.12
2023-10-06T04:21:51.009Z,19.09
2023-10-06T04:22:51.038Z,19.10
2023-10-06T04:23:51.132Z,19.09
2023-10-06T04:24:51.036Z,19.09
2023-10-06T04:25:51.059Z,19.07
2023-10-06T04:26:51.113Z,19.09
2023-10-06T04:27:51.064Z,19.10
2023-10-06T04:28:51.106Z,19.07
2023-10-06T04:29:51.136Z,19.07
2023-10-06T04:30:51.097Z,19.10
2023-10-06T04:31:51.160Z,19.13
2023-10-06T04:32:51.235Z,19.12
2023-10-06T04:33:51.168Z,19.12
2023-10-06T04:34:51.201Z,19.09
2023-10-06T04:35:51.183Z,19.07
2023-10-06T04:36:51.185Z,19.07
2023-10-06T04:37:51.215Z,19.07
2023-10-06T04:38:51.230Z,19.09
2023-10-06T04:39:51.333Z,19.07
2023-10-06T04:40:51.286Z,19.07
2023-10-06T04:42:51.233Z,19.05
2023-10-06T04:43:51.200Z,19.05
2023-10-06T04:44:53.278Z,19.05
2023-10-06T04:45:51.276Z,19.07
2023-10-06T04:47:51.241Z,19.05
2023-10-06T04:48:51.228Z,19.05
2023-10-06T04:49:51.287Z,19.02
2023-10-06T04:50:51.293Z,18.99
2023-10-06T04:51:51.293Z,18.99
2023-10-06T04:52:51.345Z,18.97
2023-10-06T04:54:51.309Z,18.97
2023-10-06T04:55:51.415Z,18.96
2023-10-06T04:56:51.367Z,18.93
2023-10-06T04:57:51.330Z,18.91
2023-10-06T04:58:51.306Z,18.90
2023-10-06T04:59:51.287Z,18.89
2023-10-06T05:00:51.291Z,18.89
2023-10-06T05:02:51.318Z,18.87
2023-10-06T05:03:51.523Z,18.89
2023-10-06T05:04:51.447Z,18.86
2023-10-06T05:05:51.624Z,18.84
2023-10-06T05:08:51.528Z,18.82
2023-10-06T05:09:51.459Z,18.79
2023-10-06T05:10:51.481Z,18.79
2023-10-06T05:11:51.593Z,18.76
2023-10-06T05:12:51.473Z,18.76
2023-10-06T05:13:51.497Z,18.76
2023-10-06T05:14:51.475Z,18.78
2023-10-06T05:15:51.593Z,18.76
2023-10-06T05:16:51.541Z,18.75
2023-10-06T05:17:51.614Z,18.74
2023-10-06T05:18:51.604Z,18.75
2023-10-06T05:19:51.606Z,18.72
2023-10-06T05:20:51.601Z,18.71
2023-10-06T05:21:51.546Z,18.69
2023-10-06T05:22:51.669Z,18.69
2023-10-06T05:23:51.556Z,18.71
2023-10-06T05:24:51.541Z,18.69
2023-10-06T05:25:51.647Z,18.71
2023-10-06T05:26:51.562Z,18.71
2023-10-06T05:27:51.694Z,18.71
2023-10-06T05:28:52.185Z,18.69
2023-10-06T05:29:51.665Z,18.68
2023-10-06T05:32:51.773Z,18.66
2023-10-06T05:33:51.602Z,18.65
2023-10-06T05:35:51.719Z,18.62
2023-10-06T05:36:51.677Z,18.60
2023-10-06T05:37:51.674Z,18.60
2023-10-06T05:38:51.743Z,18.59
2023-10-06T05:39:51.668Z,18.60
2023-10-06T05:40:51.803Z,18.60
2023-10-06T05:41:52.480Z,18.59
2023-10-06T05:42:51.698Z,18.57
2023-10-06T05:43:51.964Z,18.56
2023-10-06T05:44:51.800Z,18.54
2023-10-06T05:45:51.912Z,18.57
2023-10-06T05:47:52.049Z,18.57
2023-10-06T05:48:51.910Z,18.59
2023-10-06T05:49:51.984Z,18.60
2023-10-06T05:51:51.895Z,18.57
2023-10-06T05:52:51.999Z,18.59
2023-10-06T05:53:51.971Z,18.59
2023-10-06T05:54:51.879Z,18.56
2023-10-06T05:55:52.028Z,18.54
2023-10-06T05:56:51.977Z,18.54
2023-10-06T05:57:51.991Z,18.51
2023-10-06T05:58:52.039Z,18.51
2023-10-06T05:59:52.123Z,18.51
2023-10-06T06:00:52.434Z,18.54
2023-10-06T06:01:52.171Z,18.56
2023-10-06T06:02:52.464Z,18.56
2023-10-06T06:03:52.066Z,18.59
2023-10-06T06:05:52.051Z,18.60
2023-10-06T06:06:52.175Z,18.64
2023-10-06T06:07:52.273Z,18.64
2023-10-06T06:08:52.066Z,18.64
2023-10-06T06:09:52.210Z,18.65
2023-10-06T06:10:52.446Z,18.66
2023-10-06T06:12:52.187Z,18.59
2023-10-06T06:14:06.677Z,18.65
2023-10-06T06:14:52.347Z,18.66
2023-10-06T06:15:53.101Z,18.69
2023-10-06T06:16:52.687Z,18.72
2023-10-06T06:17:52.400Z,18.74
2023-10-06T06:18:52.272Z,18.75
2023-10-06T06:19:54.945Z,18.74
2023-10-06T06:20:52.350Z,18.74
2023-10-06T06:21:52.173Z,18.74
2023-10-06T06:22:52.214Z,18.72
2023-10-06T06:23:52.479Z,18.74
2023-10-06T06:24:52.580Z,18.74
2023-10-06T06:25:52.399Z,18.75
2023-10-06T06:26:52.398Z,18.76
2023-10-06T06:27:52.304Z,18.79
2023-10-06T06:28:52.430Z,18.84
2023-10-06T06:29:52.228Z,18.87
2023-10-06T06:31:52.516Z,18.91
2023-10-06T06:32:52.381Z,18.93
2023-10-06T06:33:52.374Z,18.97
2023-10-06T06:34:52.475Z,18.97
2023-10-06T06:35:52.865Z,18.97
2023-10-06T06:36:52.573Z,18.99
2023-10-06T06:37:52.570Z,19.01
2023-10-06T06:38:52.409Z,19.02
2023-10-06T06:39:52.517Z,19.05
2023-10-06T06:40:52.632Z,19.07
2023-10-06T06:41:52.406Z,19.10
2023-10-06T06:42:52.724Z,19.12
2023-10-06T06:43:52.554Z,19.15
2023-10-06T06:44:52.444Z,19.15
2023-10-06T06:45:52.627Z,19.16
2023-10-06T06:46:52.568Z,19.17
2023-10-06T06:47:52.801Z,19.21
2023-10-06T06:48:52.988Z,19.23
2023-10-06T06:49:52.638Z,19.24
2023-10-06T06:50:52.605Z,19.24
2023-10-06T06:51:52.676Z,19.25
2023-10-06T06:52:52.640Z,19.25
2023-10-06T06:53:52.616Z,19.25
2023-10-06T06:54:52.731Z,19.25
2023-10-06T06:55:52.653Z,19.24
2023-10-06T06:56:52.746Z,19.25
2023-10-06T06:57:56.817Z,19.28
2023-10-06T06:58:52.791Z,19.27
2023-10-06T06:59:52.843Z,19.28
2023-10-06T07:00:52.854Z,19.27
2023-10-06T07:01:53.209Z,19.31
2023-10-06T07:02:52.978Z,19.30
2023-10-06T07:03:52.952Z,19.34
2023-10-06T07:04:52.994Z,19.35
2023-10-06T07:05:53.007Z,19.35
2023-10-06T07:06:54.049Z,19.34
2023-10-06T07:07:53.308Z,19.38
2023-10-06T07:08:52.803Z,19.38
2023-10-06T07:09:53.113Z,19.39
2023-10-06T07:10:53.183Z,19.38
2023-10-06T07:11:53.266Z,19.35
2023-10-06T07:12:53.377Z,19.39
2023-10-06T07:13:53.094Z,19.40
2023-10-06T07:14:55.430Z,19.40
2023-10-06T07:15:54.299Z,19.42
2023-10-06T07:17:53.386Z,19.45
2023-10-06T07:19:55.458Z,19.46
2023-10-06T07:20:53.122Z,19.46
2023-10-06T07:21:55.572Z,19.47
2023-10-06T07:22:54.188Z,19.50
2023-10-06T07:23:54.577Z,19.52
2023-10-06T07:24:53.342Z,19.52
2023-10-06T07:25:53.297Z,19.50
2023-10-06T07:26:53.476Z,19.52
2023-10-06T07:27:56.105Z,19.49
2023-10-06T07:28:57.293Z,19.46
2023-10-06T07:29:53.607Z,19.43
2023-10-06T07:30:53.069Z,19.47
2023-10-06T07:31:53.414Z,19.46
2023-10-06T07:33:54.005Z,19.49
2023-10-06T07:34:53.653Z,19.50
2023-10-06T07:35:57.921Z,19.53
2023-10-06T07:36:56.400Z,19.53
2023-10-06T07:38:54.359Z,19.47
2023-10-06T07:40:54.021Z,19.45
2023-10-06T07:41:54.227Z,19.43
2023-10-06T07:42:53.285Z,19.45
2023-10-06T07:43:55.244Z,19.47
2023-10-06T07:44:54.510Z,19.50
2023-10-06T07:45:55.209Z,19.52
2023-10-06T07:46:53.673Z,19.50
2023-10-06T07:47:53.307Z,19.52
2023-10-06T07:48:53.424Z,19.53
2023-10-06T07:49:53.130Z,19.55
2023-10-06T07:50:53.225Z,19.53
2023-10-06T07:51:53.469Z,19.53
2023-10-06T07:52:54.163Z,19.58
2023-10-06T07:53:53.246Z,19.58
2023-10-06T07:54:53.464Z,19.60
2023-10-06T07:55:53.568Z,19.62
2023-10-06T07:56:53.473Z,19.67
2023-10-06T07:57:53.379Z,19.68
2023-10-06T07:58:53.314Z,19.68
2023-10-06T07:59:54.197Z,19.68
2023-10-06T08:00:54.317Z,19.67
2023-10-06T08:01:54.038Z,19.67
2023-10-06T08:02:53.428Z,19.64
2023-10-06T08:03:53.749Z,19.64
2023-10-06T08:04:53.428Z,19.65
2023-10-06T08:05:53.523Z,19.65
2023-10-06T08:06:53.450Z,19.68
2023-10-06T08:07:53.773Z,19.68
2023-10-06T08:08:53.551Z,19.70
2023-10-06T08:09:53.456Z,19.71
2023-10-06T08:10:53.674Z,19.68
2023-10-06T08:11:53.763Z,19.65
2023-10-06T08:12:53.700Z,19.68
2023-10-06T08:13:53.605Z,19.70
2023-10-06T08:14:53.812Z,19.71
2023-10-06T08:15:53.514Z,19.75
2023-10-06T08:16:53.412Z,19.76
2023-10-06T08:17:53.428Z,19.80
2023-10-06T08:18:54.232Z,19.80
2023-10-06T08:19:53.664Z,19.82
2023-10-06T08:20:53.424Z,19.80
2023-10-06T08:21:53.736Z,19.82
2023-10-06T08:22:53.550Z,19.83
2023-10-06T08:23:53.466Z,19.83
2023-10-06T08:24:53.869Z,19.83
2023-10-06T08:26:00.431Z,19.83
2023-10-06T08:26:53.459Z,19.85
2023-10-06T08:27:55.011Z,19.85
2023-10-06T08:28:53.492Z,19.85
2023-10-06T08:29:53.604Z,19.85
2023-10-06T08:30:53.519Z,19.85
2023-10-06T08:31:53.719Z,19.86
2023-10-06T08:32:54.198Z,19.87
2023-10-06T08:33:53.665Z,19.86
2023-10-06T08:34:53.822Z,19.87
2023-10-06T08:35:53.526Z,19.89
2023-10-06T08:36:53.559Z,19.87
2023-10-06T08:37:53.581Z,19.89
2023-10-06T08:38:53.466Z,19.89
2023-10-06T08:39:53.705Z,19.90
2023-10-06T08:40:53.722Z,19.90
2023-10-06T08:41:53.665Z,19.90
2023-10-06T08:42:53.519Z,19.90
2023-10-06T08:43:53.690Z,19.90
2023-10-06T08:44:54.634Z,19.92
2023-10-06T08:45:54.232Z,19.90
2023-10-06T08:46:53.968Z,19.94
2023-10-06T08:48:53.688Z,19.90
2023-10-06T08:50:53.965Z,19.89
2023-10-06T08:51:53.640Z,19.90
2023-10-06T08:52:53.750Z,19.90
2023-10-06T08:53:53.758Z,19.94
2023-10-06T08:54:53.986Z,19.92
2023-10-06T08:55:53.798Z,19.95
2023-10-06T08:56:54.513Z,19.95
2023-10-06T08:57:53.972Z,19.97
2023-10-06T08:58:53.805Z,19.95
2023-10-06T08:59:53.727Z,19.98
2023-10-06T09:00:53.900Z,20.00
2023-10-06T09:01:53.822Z,20.01
2023-10-06T09:02:53.924Z,20.02
2023-10-06T09:03:53.869Z,20.01
2023-10-06T09:04:53.854Z,20.04
2023-10-06T09:05:54.040Z,20.04
2023-10-06T09:06:53.897Z,20.04
2023-10-06T09:07:53.805Z,20.05
2023-10-06T09:08:53.842Z,20.08
2023-10-06T09:09:53.877Z,20.07
2023-10-06T09:10:53.931Z,20.08
2023-10-06T09:11:54.114Z,20.10
2023-10-06T09:12:54.105Z,20.15
2023-10-06T09:13:54.609Z,20.17
2023-10-06T09:15:54.041Z,20.22
2023-10-06T09:16:54.150Z,20.25
2023-10-06T09:17:54.060Z,20.25
2023-10-06T09:18:54.030Z,20.23
2023-10-06T09:19:54.191Z,20.26
2023-10-06T09:20:54.195Z,20.30
2023-10-06T09:21:54.166Z,20.33
2023-10-06T09:22:54.089Z,20.33
2023-10-06T09:23:54.100Z,20.33
2023-10-06T09:24:54.280Z,20.33
2023-10-06T09:25:54.230Z,20.33
2023-10-06T09:26:54.455Z,20.34
2023-10-06T09:27:54.334Z,20.34
2023-10-06T09:28:55.006Z,20.34
2023-10-06T09:29:54.135Z,20.37
2023-10-06T09:30:54.237Z,20.38
2023-10-06T09:31:54.380Z,20.40
2023-10-06T09:32:54.200Z,20.40
2023-10-06T09:33:54.360Z,20.44
2023-10-06T09:34:54.365Z,20.46
2023-10-06T09:35:54.187Z,20.48
2023-10-06T09:36:54.263Z,20.51
2023-10-06T09:37:54.184Z,20.51
2023-10-06T09:38:54.201Z,20.53
2023-10-06T09:39:54.278Z,20.51
2023-10-06T09:40:54.230Z,20.56
2023-10-06T09:41:54.296Z,20.58
2023-10-06T09:42:54.292Z,20.58
2023-10-06T09:43:54.408Z,20.63
2023-10-06T09:44:54.241Z,20.64
2023-10-06T09:45:54.346Z,20.66
2023-10-06T09:46:54.814Z,20.68
2023-10-06T09:47:54.373Z,20.69
2023-10-06T09:48:54.303Z,20.72
2023-10-06T09:49:54.873Z,20.71
2023-10-06T09:50:55.088Z,20.75
2023-10-06T09:51:55.911Z,20.75
2023-10-06T09:53:54.400Z,20.82
2023-10-06T09:54:54.404Z,20.83
2023-10-06T09:55:54.400Z,20.87
2023-10-06T09:56:54.413Z,20.90
2023-10-06T09:57:54.837Z,20.90
2023-10-06T09:58:54.536Z,20.94
2023-10-06T09:59:54.673Z,20.97
2023-10-06T10:00:54.866Z,20.98
2023-10-06T10:01:54.996Z,21.00
2023-10-06T10:02:54.519Z,21.01
2023-10-06T10:03:54.553Z,21.01
2023-10-06T10:04:54.483Z,21.05
2023-10-06T10:05:54.610Z,21.06
2023-10-06T10:06:54.593Z,21.08
2023-10-06T10:07:54.562Z,21.09
2023-10-06T10:08:54.520Z,21.15
2023-10-06T10:09:54.805Z,21.15
2023-10-06T10:10:54.555Z,21.18
2023-10-06T10:11:54.622Z,21.18
2023-10-06T10:12:54.927Z,21.19
2023-10-06T10:13:54.675Z,21.22
2023-10-06T10:14:54.745Z,21.22
2023-10-06T10:15:54.716Z,21.22
2023-10-06T10:16:54.606Z,21.22
2023-10-06T10:17:54.742Z,21.26
2023-10-06T10:18:54.586Z,21.26
2023-10-06T10:19:55.701Z,21.27
2023-10-06T10:20:54.772Z,21.27
2023-10-06T10:21:54.786Z,21.28
2023-10-06T10:22:54.710Z,21.28
2023-10-06T10:24:01.848Z,21.31
2023-10-06T10:25:16.310Z,21.34
2023-10-06T10:25:55.042Z,21.37
2023-10-06T10:26:54.737Z,21.37
2023-10-06T10:27:54.740Z,21.38
2023-10-06T10:28:54.978Z,21.42
2023-10-06T10:29:57.220Z,21.42
2023-10-06T10:30:54.964Z,21.43
2023-10-06T10:32:14.374Z,21.45
2023-10-06T10:32:55.802Z,21.46
2023-10-06T10:33:54.891Z,21.46
2023-10-06T10:34:55.013Z,21.46
2023-10-06T10:35:54.793Z,21.46
2023-10-06T10:36:54.840Z,21.45
2023-10-06T10:37:55.103Z,21.43
2023-10-06T10:38:54.802Z,21.43
2023-10-06T10:39:55.230Z,21.43
2023-10-06T10:40:55.285Z,21.40
2023-10-06T10:41:54.929Z,21.43
2023-10-06T10:44:26.746Z,21.40
2023-10-06T10:45:21.384Z,21.42
2023-10-06T10:46:21.231Z,21.40
2023-10-06T10:47:21.031Z,21.38
2023-10-06T10:48:21.890Z,21.38
2023-10-06T10:49:22.008Z,21.37
2023-10-06T10:50:20.991Z,21.36
2023-10-06T10:51:21.825Z,21.33
2023-10-06T10:52:21.834Z,21.33
2023-10-06T10:53:22.096Z,21.33
2023-10-06T10:54:22.662Z,21.33
2023-10-06T10:56:23.930Z,21.33
2023-10-06T10:57:21.443Z,21.33
2023-10-06T10:59:21.479Z,21.31
2023-10-06T11:00:21.180Z,21.31
2023-10-06T11:01:21.884Z,21.31
2023-10-06T11:02:21.753Z,21.34
2023-10-06T11:03:21.364Z,21.34
2023-10-06T11:04:21.194Z,21.33
2023-10-06T11:05:22.572Z,21.34
2023-10-06T11:06:22.025Z,21.34
2023-10-06T11:07:21.214Z,21.36
2023-10-06T11:09:21.530Z,21.40
2023-10-06T11:10:21.454Z,21.38
2023-10-06T11:11:21.473Z,21.38
2023-10-06T11:12:24.803Z,21.38
2023-10-06T11:13:21.376Z,21.38
2023-10-06T11:14:21.791Z,21.38
2023-10-06T11:15:21.269Z,21.40
2023-10-06T11:16:21.810Z,21.42
2023-10-06T11:17:22.646Z,21.42
2023-10-06T11:18:21.391Z,21.43
2023-10-06T11:19:21.419Z,21.42
2023-10-06T11:21:21.518Z,21.42
2023-10-06T11:22:21.824Z,21.43
2023-10-06T11:23:21.349Z,21.46
2023-10-06T11:24:21.727Z,21.49
2023-10-06T11:25:24.098Z,21.51
2023-10-06T11:26:21.881Z,21.53
2023-10-06T11:27:22.486Z,21.53
2023-10-06T11:28:21.378Z,21.53
2023-10-06T11:29:21.399Z,21.53
2023-10-06T11:30:21.687Z,21.56
2023-10-06T11:31:22.595Z,21.56
2023-10-06T11:32:22.198Z,21.56
2023-10-06T11:33:21.634Z,21.55
2023-10-06T11:34:21.483Z,21.55
2023-10-06T11:35:21.547Z,21.56
2023-10-06T11:36:21.608Z,21.53
2023-10-06T11:37:22.653Z,21.53
2023-10-06T11:38:21.454Z,21.53
2023-10-06T11:39:22.045Z,21.53
2023-10-06T11:40:21.423Z,21.56
2023-10-06T11:41:21.611Z,21.55
2023-10-06T11:44:21.692Z,21.56
2023-10-06T11:45:21.533Z,21.58
2023-10-06T11:46:21.690Z,21.58
2023-10-06T11:47:21.679Z,21.61
2023-10-06T11:48:22.031Z,21.63
2023-10-06T11:49:21.913Z,21.64
2023-10-06T11:50:21.667Z,21.64
2023-10-06T11:51:21.751Z,21.63
2023-10-06T11:53:21.655Z,21.66
2023-10-06T11:54:21.592Z,21.66
2023-10-06T11:56:21.769Z,21.66
2023-10-06T11:57:21.640Z,21.66
2023-10-06T11:58:22.447Z,21.66
2023-10-06T12:00:21.840Z,21.67
2023-10-06T12:01:22.519Z,21.68
2023-10-06T12:02:21.772Z,21.70
2023-10-06T12:03:21.842Z,21.70
2023-10-06T12:04:21.816Z,21.71
2023-10-06T12:05:22.117Z,21.73
2023-10-06T12:06:22.113Z,21.74
2023-10-06T12:07:21.848Z,21.74
2023-10-06T12:08:22.113Z,21.74
2023-10-06T12:09:22.829Z,21.75
2023-10-06T12:10:21.724Z,21.71
2023-10-06T12:11:21.774Z,21.68
2023-10-06T12:12:21.736Z,21.68
2023-10-06T12:13:22.879Z,21.68
2023-10-06T12:14:22.525Z,21.67
2023-10-06T12:16:21.778Z,21.64
2023-10-06T12:17:21.854Z,21.64
2023-10-06T12:18:21.781Z,21.66
2023-10-06T12:19:23.682Z,21.66
2023-10-06T12:20:21.822Z,21.67
2023-10-06T12:21:22.017Z,21.68
2023-10-06T12:22:30.050Z,21.68
2023-10-06T12:23:22.180Z,21.68
2023-10-06T12:24:21.923Z,21.70
2023-10-06T12:25:21.829Z,21.70
2023-10-06T12:26:21.850Z,21.70
2023-10-06T12:27:21.871Z,21.68
2023-10-06T12:28:21.966Z,21.68
2023-10-06T12:29:21.997Z,21.68
2023-10-06T12:31:22.018Z,21.67
2023-10-06T12:32:21.982Z,21.67
2023-10-06T12:33:22.051Z,21.66
2023-10-06T12:34:22.045Z,21.66
2023-10-06T12:35:21.967Z,21.64
2023-10-06T12:36:21.995Z,21.66
2023-10-06T12:37:22.207Z,21.67
2023-10-06T12:38:22.147Z,21.66
2023-10-06T12:39:22.155Z,21.68
2023-10-06T12:40:22.036Z,21.68
2023-10-06T12:42:22.087Z,21.71
2023-10-06T12:43:22.140Z,21.70
2023-10-06T12:45:22.162Z,21.74
2023-10-06T12:46:22.174Z,21.74
2023-10-06T12:48:22.562Z,21.79
2023-10-06T12:49:22.192Z,21.79
2023-10-06T12:50:22.370Z,21.82
2023-10-06T12:51:22.521Z,21.83
2023-10-06T12:52:22.210Z,21.83
2023-10-06T12:53:22.336Z,21.86
2023-10-06T12:54:22.181Z,21.89
2023-10-06T12:55:22.312Z,21.91
2023-10-06T12:58:22.244Z,22.01
2023-10-06T12:59:22.323Z,22.02
2023-10-06T13:00:24.371Z,22.05
2023-10-06T13:01:22.369Z,22.08
2023-10-06T13:02:22.349Z,22.09
2023-10-06T13:03:22.440Z,22.14
2023-10-06T13:04:22.522Z,22.14
2023-10-06T13:05:24.605Z,22.12
2023-10-06T13:06:22.416Z,22.15
2023-10-06T13:07:22.429Z,22.17
2023-10-06T13:08:23.041Z,22.19
2023-10-06T13:09:22.474Z,22.20
2023-10-06T13:11:22.546Z,22.23
2023-10-06T13:12:22.559Z,22.24
2023-10-06T13:15:22.642Z,22.26
2023-10-06T13:16:22.604Z,22.24
2023-10-06T13:17:22.643Z,22.23
2023-10-06T13:18:22.655Z,22.21
2023-10-06T13:19:22.611Z,22.21
2023-10-06T13:20:22.906Z,22.21
2023-10-06T13:21:22.674Z,22.19
2023-10-06T13:23:22.740Z,22.15
2023-10-06T13:24:22.640Z,22.14
2023-10-06T13:25:22.658Z,22.14
2023-10-06T13:26:40.069Z,22.12
2023-10-06T13:28:22.775Z,22.14
2023-10-06T13:29:22.761Z,22.12
2023-10-06T13:30:22.723Z,22.14
2023-10-06T13:31:22.858Z,22.15
2023-10-06T13:32:22.951Z,22.15
2023-10-06T13:33:22.918Z,22.15
2023-10-06T13:34:22.795Z,22.14
2023-10-06T13:35:22.843Z,22.14
2023-10-06T13:36:22.909Z,22.17
2023-10-06T13:37:22.834Z,22.15
2023-10-06T13:38:23.000Z,22.17
2023-10-06T13:39:22.849Z,22.15
2023-10-06T13:40:22.805Z,22.15
2023-10-06T13:41:23.480Z,22.17
2023-10-06T13:42:22.958Z,22.17
2023-10-06T13:43:22.926Z,22.17
2023-10-06T13:44:23.031Z,22.21
2023-10-06T13:45:22.996Z,22.20
2023-10-06T13:46:22.896Z,22.23
2023-10-06T13:47:23.036Z,22.23
2023-10-06T13:48:23.413Z,22.24
2023-10-06T13:49:23.365Z,22.26
2023-10-06T13:50:23.052Z,22.27
2023-10-06T13:51:22.941Z,22.27
2023-10-06T13:52:23.082Z,22.31
2023-10-06T13:53:23.305Z,22.29
2023-10-06T13:54:22.948Z,22.31
2023-10-06T13:55:22.998Z,22.31
2023-10-06T13:56:22.984Z,22.33
2023-10-06T13:57:23.014Z,22.33
2023-10-06T13:58:22.978Z,22.33
2023-10-06T13:59:23.004Z,22.35
2023-10-06T14:00:23.117Z,22.36
2023-10-06T14:01:23.112Z,22.36
2023-10-06T14:02:23.146Z,22.38
2023-10-06T14:03:23.269Z,22.39
2023-10-06T14:04:23.053Z,22.41
2023-10-06T14:05:23.097Z,22.42
2023-10-06T14:06:23.079Z,22.46
2023-10-06T14:08:23.151Z,22.51
2023-10-06T14:09:23.085Z,22.54
2023-10-06T14:10:23.096Z,22.56
2023-10-06T14:11:23.134Z,22.57
2023-10-06T14:12:23.154Z,22.60
2023-10-06T14:13:23.220Z,22.61
2023-10-06T14:14:23.138Z,22.64
2023-10-06T14:15:23.131Z,22.66
2023-10-06T14:16:23.324Z,22.70